Time;durP1;ratioP1;P1;durP2;ratioP2;P2;SDS_P1;SDS_P2;PMS_P1;PMS_P2;Temp;Humidity;BMP_temperature;BMP_pressure;BME280_temperature;BME280_humidity;BME280_pressure;Samples;Min_cycle;Max_cycle;Signal;HPM_P1;HPM_P2
2022/04/27 00:00:29;;;;;;;;;;;5.40;99.90;;;;;;5030267;28;19926;-79
2022/04/27 00:02:55;;;;;;;;;;;5.40;99.90;;;;;;5023322;28;20026;-79
2022/04/27 00:05:22;;;;;;;;;;;5.30;99.90;;;;;;5044326;28;19932;-78
2022/04/27 00:07:48;;;;;;;;;;;5.30;99.90;;;;;;5028753;28;20368;-79
2022/04/27 00:10:15;;;;;;;;;;;5.30;99.90;;;;;;5033253;28;20046;-79
2022/04/27 00:12:42;;;;;;;;;;;5.40;99.90;;;;;;5047189;28;19929;-83
2022/04/27 00:15:09;;;;;;;;;;;5.40;99.90;;;;;;5027779;28;19932;-79
2022/04/27 00:17:35;;;;;;;;;;;5.40;99.90;;;;;;5026089;28;19924;-79
2022/04/27 00:20:02;;;;;;;;;;;5.40;99.90;;;;;;5020662;28;19921;-78
2022/04/27 00:22:29;;;;;;;;;;;5.40;99.90;;;;;;5046455;28;20387;-78
2022/04/27 00:25:00;;;;;;;;;;;5.40;99.90;;;;;;5034206;28;19925;-79
2022/04/27 00:27:26;;;;;;;;;;;5.40;99.90;;;;;;5022337;28;19925;-78
2022/04/27 00:29:53;;;;;;;;;;;5.50;99.90;;;;;;5032084;28;19924;-79
2022/04/27 00:32:19;;;;;;;;;;;5.50;99.90;;;;;;5033895;28;19924;-77
2022/04/27 00:34:46;;;;;;;;;;;5.50;99.90;;;;;;5030340;28;19928;-78
2022/04/27 00:37:12;;;;;;;;;;;5.50;99.90;;;;;;5020385;28;19932;-79
2022/04/27 00:39:39;;;;;;;;;;;5.50;99.90;;;;;;5048875;28;19932;-78
2022/04/27 00:42:06;;;;;;;;;;;5.50;99.90;;;;;;5050834;28;19924;-81
2022/04/27 00:44:32;;;;;;;;;;;5.60;99.90;;;;;;5052419;28;19948;-79
2022/04/27 00:46:59;;;;;;;;;;;5.50;99.90;;;;;;5053743;28;19925;-79
2022/04/27 00:49:25;;;;;;;;;;;5.50;99.90;;;;;;5024877;28;20368;-81
2022/04/27 00:51:52;;;;;;;;;;;5.50;99.90;;;;;;5029035;28;19983;-79
2022/04/27 00:54:22;;;;;;;;;;;5.40;99.90;;;;;;5024861;28;19925;-78
2022/04/27 00:56:48;;;;;;;;;;;5.40;99.90;;;;;;5025418;28;19925;-78
2022/04/27 00:59:15;;;;;;;;;;;5.40;99.90;;;;;;5033088;28;19925;-79
2022/04/27 01:01:41;;;;;;;;;;;5.30;99.90;;;;;;5030118;28;19932;-80
2022/04/27 01:04:08;;;;;;;;;;;5.30;99.90;;;;;;5028239;28;19929;-79
2022/04/27 01:06:34;;;;;;;;;;;5.30;99.90;;;;;;5054756;28;19924;-79
2022/04/27 01:09:01;;;;;;;;;;;5.20;99.90;;;;;;5028166;28;19929;-78
2022/04/27 01:11:27;;;;;;;;;;;5.20;99.90;;;;;;5024863;28;19925;-81
2022/04/27 01:13:54;;;;;;;;;;;5.20;99.90;;;;;;5033064;28;19925;-79
2022/04/27 01:16:20;;;;;;;;;;;5.20;99.90;;;;;;5035512;28;19929;-79
2022/04/27 01:18:48;;;;;;;;;;;5.20;99.90;;;;;;5035913;28;20326;-80
2022/04/27 01:21:14;;;;;;;;;;;5.30;99.90;;;;;;5036864;28;19925;-77
2022/04/27 01:23:41;;;;;;;;;;;5.30;99.90;;;;;;5032597;28;19944;-78
2022/04/27 01:26:08;;;;;;;;;;;5.30;99.90;;;;;;5032156;28;19924;-79
2022/04/27 01:28:35;;;;;;;;;;;5.40;99.90;;;;;;5031830;28;20449;-79
2022/04/27 01:31:02;;;;;;;;;;;5.40;99.90;;;;;;5044393;28;20306;-77
2022/04/27 01:33:29;;;;;;;;;;;5.50;99.90;;;;;;5029541;28;19925;-79
2022/04/27 01:35:58;;;;;;;;;;;5.50;99.90;;;;;;5031981;28;21702;-77
2022/04/27 01:38:24;;;;;;;;;;;5.50;99.90;;;;;;5028773;28;19925;-81
2022/04/27 01:40:51;;;;;;;;;;;5.60;99.90;;;;;;5035856;28;19932;-79
2022/04/27 01:43:19;;;;;;;;;;;5.60;99.90;;;;;;5029972;28;19931;-79
2022/04/27 01:45:45;;;;;;;;;;;5.70;99.90;;;;;;5041617;28;19925;-79
2022/04/27 01:48:12;;;;;;;;;;;5.70;99.90;;;;;;5029650;28;19924;-79
2022/04/27 01:50:38;;;;;;;;;;;5.70;99.90;;;;;;5034788;28;19924;-84
2022/04/27 01:55:50;;;;;;;;;;;5.80;99.90;;;;;;5024494;28;19978;-85
2022/04/27 01:58:16;;;;;;;;;;;5.80;99.90;;;;;;5030958;28;19933;-79
2022/04/27 02:00:46;;;;;;;;;;;5.90;99.90;;;;;;5031342;28;19932;-79
2022/04/27 02:03:13;;;;;;;;;;;5.90;99.90;;;;;;5036848;28;19932;-79
2022/04/27 02:05:39;;;;;;;;;;;5.90;99.90;;;;;;5029066;28;20453;-79
2022/04/27 02:08:06;;;;;;;;;;;5.90;99.90;;;;;;5033106;28;19931;-79
2022/04/27 02:10:32;;;;;;;;;;;5.90;99.90;;;;;;5047526;28;19932;-82
2022/04/27 02:12:59;;;;;;;;;;;5.90;99.90;;;;;;5018473;28;19940;-79
2022/04/27 02:15:25;;;;;;;;;;;5.90;99.90;;;;;;5046430;28;19979;-80
2022/04/27 02:17:52;;;;;;;;;;;5.90;99.90;;;;;;5050984;28;19932;-82
2022/04/27 02:20:19;;;;;;;;;;;5.90;99.90;;;;;;5023557;28;19948;-79
2022/04/27 02:22:45;;;;;;;;;;;5.90;99.90;;;;;;5051433;28;19928;-78
2022/04/27 02:25:12;;;;;;;;;;;5.90;99.90;;;;;;5048697;28;19925;-79
2022/04/27 02:27:38;;;;;;;;;;;5.90;99.90;;;;;;5033250;28;19987;-78
2022/04/27 02:30:05;;;;;;;;;;;5.90;99.90;;;;;;5029645;28;19928;-79
2022/04/27 02:32:31;;;;;;;;;;;6.00;99.90;;;;;;5042059;28;19940;-78
2022/04/27 02:34:58;;;;;;;;;;;5.90;99.90;;;;;;5034777;28;19939;-79
2022/04/27 02:37:25;;;;;;;;;;;5.90;99.90;;;;;;5033336;28;19932;-79
2022/04/27 02:39:51;;;;;;;;;;;5.90;99.90;;;;;;5029165;28;19929;-84
2022/04/27 02:42:18;;;;;;;;;;;5.90;99.90;;;;;;5040517;28;19925;-78
2022/04/27 02:44:44;;;;;;;;;;;5.90;99.90;;;;;;5045292;28;19924;-80
2022/04/27 02:47:11;;;;;;;;;;;5.90;99.90;;;;;;5023558;28;19936;-79
2022/04/27 02:52:21;;;;;;;;;;;5.90;99.90;;;;;;5021444;28;19936;-79
2022/04/27 02:54:48;;;;;;;;;;;6.00;99.90;;;;;;5025739;28;20382;-79
2022/04/27 02:57:16;;;;;;;;;;;5.90;99.90;;;;;;5032995;28;19990;-79
2022/04/27 02:59:42;;;;;;;;;;;5.90;99.90;;;;;;5034034;28;19925;-79
2022/04/27 03:02:09;;;;;;;;;;;5.90;99.90;;;;;;5030849;28;19932;-79
2022/04/27 03:04:35;;;;;;;;;;;5.90;99.90;;;;;;5052283;28;20368;-79
2022/04/27 03:07:02;;;;;;;;;;;5.90;99.90;;;;;;5025722;28;19975;-80
2022/04/27 03:09:29;;;;;;;;;;;5.90;99.90;;;;;;5031222;28;19925;-77
2022/04/27 03:11:55;;;;;;;;;;;5.90;99.90;;;;;;5030903;28;19925;-84
2022/04/27 03:14:22;;;;;;;;;;;5.90;99.90;;;;;;5028795;28;19929;-79
2022/04/27 03:16:48;;;;;;;;;;;5.90;99.90;;;;;;5016278;28;19933;-79
2022/04/27 03:19:15;;;;;;;;;;;5.90;99.90;;;;;;5025884;28;20513;-79
2022/04/27 03:21:42;;;;;;;;;;;5.90;99.90;;;;;;5025856;28;19933;-79
2022/04/27 03:24:09;;;;;;;;;;;6.00;99.90;;;;;;5027949;28;20360;-79
2022/04/27 03:26:35;;;;;;;;;;;6.00;99.90;;;;;;5032256;28;19947;-79
2022/04/27 03:29:03;;;;;;;;;;;6.00;99.90;;;;;;5018765;28;19925;-80
2022/04/27 03:31:29;;;;;;;;;;;6.00;99.90;;;;;;5026084;28;19925;-80
2022/04/27 03:33:56;;;;;;;;;;;6.00;99.90;;;;;;5020144;28;19929;-83
2022/04/27 03:36:22;;;;;;;;;;;6.00;99.90;;;;;;5030875;28;19932;-79
2022/04/27 03:38:49;;;;;;;;;;;6.00;99.90;;;;;;5017779;28;19941;-79
2022/04/27 03:41:17;;;;;;;;;;;6.10;99.90;;;;;;5030590;28;19925;-79
2022/04/27 03:43:44;;;;;;;;;;;6.10;99.90;;;;;;5031209;28;20368;-83
2022/04/27 03:46:10;;;;;;;;;;;6.10;99.90;;;;;;5030794;28;20387;-79
2022/04/27 03:48:37;;;;;;;;;;;6.10;99.90;;;;;;5026331;28;19926;-79
2022/04/27 03:51:04;;;;;;;;;;;6.10;99.90;;;;;;5029776;28;19929;-79
2022/04/27 03:53:30;;;;;;;;;;;6.10;99.90;;;;;;5019430;28;19949;-79
2022/04/27 03:55:57;;;;;;;;;;;6.10;99.90;;;;;;5030429;28;19925;-79
2022/04/27 03:58:23;;;;;;;;;;;6.10;99.90;;;;;;5030619;28;19932;-79
2022/04/27 04:00:50;;;;;;;;;;;6.10;99.90;;;;;;5030060;28;19932;-79
2022/04/27 04:03:16;;;;;;;;;;;6.10;99.90;;;;;;5028007;28;19948;-79
2022/04/27 04:05:43;;;;;;;;;;;6.10;99.90;;;;;;5031264;28;19976;-79
2022/04/27 04:08:09;;;;;;;;;;;6.10;99.90;;;;;;5026432;28;19948;-79
2022/04/27 04:10:36;;;;;;;;;;;6.10;99.90;;;;;;5048903;28;19947;-79
2022/04/27 04:13:02;;;;;;;;;;;6.10;99.90;;;;;;5040087;28;19931;-80
2022/04/27 04:15:29;;;;;;;;;;;6.10;99.90;;;;;;5028907;28;20323;-79
2022/04/27 04:17:56;;;;;;;;;;;6.10;99.90;;;;;;5031513;28;20364;-79
2022/04/27 04:20:22;;;;;;;;;;;6.10;99.90;;;;;;5043491;28;19932;-79
2022/04/27 04:22:49;;;;;;;;;;;6.10;99.90;;;;;;5036906;28;19925;-79
2022/04/27 04:30:44;;;;;;;;;;;6.10;99.90;;;;;;5043027;28;19931;-81
2022/04/27 04:33:11;;;;;;;;;;;6.10;99.90;;;;;;5047126;28;19925;-79
2022/04/27 04:35:37;;;;;;;;;;;6.10;99.90;;;;;;5043506;28;20319;-78
2022/04/27 04:38:04;;;;;;;;;;;6.10;99.90;;;;;;5027798;28;19925;-80
2022/04/27 04:40:31;;;;;;;;;;;6.10;99.90;;;;;;5025718;28;19932;-79
2022/04/27 04:42:57;;;;;;;;;;;6.10;99.90;;;;;;5037216;28;19924;-80
2022/04/27 04:45:24;;;;;;;;;;;6.10;99.90;;;;;;5048359;28;19936;-80
2022/04/27 04:47:51;;;;;;;;;;;6.10;99.90;;;;;;5036207;28;19971;-80
2022/04/27 04:50:17;;;;;;;;;;;6.10;99.90;;;;;;5027546;28;19932;-79
2022/04/27 04:52:44;;;;;;;;;;;6.20;99.90;;;;;;5032484;28;20410;-80
2022/04/27 04:55:10;;;;;;;;;;;6.10;99.90;;;;;;5022444;28;19925;-80
2022/04/27 04:57:37;;;;;;;;;;;6.10;99.90;;;;;;5054247;28;19971;-78
2022/04/27 05:00:03;;;;;;;;;;;6.10;99.90;;;;;;5032143;28;20265;-84
2022/04/27 05:02:30;;;;;;;;;;;6.10;99.90;;;;;;5052613;28;19932;-78
2022/04/27 05:04:56;;;;;;;;;;;6.10;99.90;;;;;;5033791;28;19932;-80
2022/04/27 05:07:23;;;;;;;;;;;6.10;99.90;;;;;;5046151;28;19963;-80
2022/04/27 05:09:49;;;;;;;;;;;6.10;99.90;;;;;;5023608;28;20292;-80
2022/04/27 05:12:16;;;;;;;;;;;6.20;99.90;;;;;;5001821;28;20399;-79
2022/04/27 05:14:43;;;;;;;;;;;6.20;99.90;;;;;;5004660;28;19933;-82
2022/04/27 05:17:09;;;;;;;;;;;6.20;99.90;;;;;;5010128;28;19925;-81
2022/04/27 05:19:37;;;;;;;;;;;6.20;99.90;;;;;;5006438;28;19930;-79
2022/04/27 05:22:03;;;;;;;;;;;6.30;99.90;;;;;;5013164;28;19926;-84
2022/04/27 05:24:30;;;;;;;;;;;6.30;99.90;;;;;;5000741;28;19933;-79
2022/04/27 05:26:56;;;;;;;;;;;6.30;99.90;;;;;;4999782;28;19973;-80
2022/04/27 05:32:07;;;;;;;;;;;6.40;99.90;;;;;;5005315;28;19926;-83
2022/04/27 05:34:34;;;;;;;;;;;6.40;99.90;;;;;;5013922;28;20347;-79
2022/04/27 05:37:00;;;;;;;;;;;6.40;99.90;;;;;;5013417;28;20369;-77
2022/04/27 05:39:27;;;;;;;;;;;6.50;99.90;;;;;;4996562;28;19976;-79
2022/04/27 05:41:53;;;;;;;;;;;6.50;99.90;;;;;;5002165;28;19925;-79
2022/04/27 05:44:21;;;;;;;;;;;6.50;99.90;;;;;;5013309;28;19932;-79
2022/04/27 05:46:48;;;;;;;;;;;6.60;99.90;;;;;;5012543;28;20031;-80
2022/04/27 05:49:15;;;;;;;;;;;6.60;99.90;;;;;;5006712;28;19926;-79
2022/04/27 05:51:41;;;;;;;;;;;6.60;99.90;;;;;;5005720;28;19929;-79
2022/04/27 05:54:08;;;;;;;;;;;6.70;99.90;;;;;;5008641;28;19926;-82
2022/04/27 05:56:34;;;;;;;;;;;6.70;99.90;;;;;;5015727;28;19937;-78
2022/04/27 05:59:01;;;;;;;;;;;6.80;99.90;;;;;;5018166;28;19925;-79
2022/04/27 06:01:28;;;;;;;;;;;6.80;99.90;;;;;;5017040;28;20356;-79
2022/04/27 06:03:54;;;;;;;;;;;6.80;99.90;;;;;;5011755;28;20277;-79
2022/04/27 06:06:21;;;;;;;;;;;6.80;99.90;;;;;;5004608;28;19968;-79
2022/04/27 06:08:47;;;;;;;;;;;6.90;99.90;;;;;;5012286;28;19925;-79
2022/04/27 06:11:15;;;;;;;;;;;6.90;99.90;;;;;;5047853;28;19940;-79
2022/04/27 06:13:41;;;;;;;;;;;7.00;99.90;;;;;;5033573;28;19925;-79
2022/04/27 06:16:08;;;;;;;;;;;7.00;99.90;;;;;;5045745;28;19925;-82
2022/04/27 06:18:34;;;;;;;;;;;7.00;99.90;;;;;;5055192;28;19925;-77
2022/04/27 06:21:01;;;;;;;;;;;7.10;99.90;;;;;;5031910;28;19925;-79
2022/04/27 06:23:27;;;;;;;;;;;7.10;99.90;;;;;;5029904;28;19932;-78
2022/04/27 06:25:55;;;;;;;;;;;7.20;99.90;;;;;;5037724;28;19925;-79
2022/04/27 06:28:22;;;;;;;;;;;7.30;99.90;;;;;;5030690;28;19925;-79
2022/04/27 06:30:48;;;;;;;;;;;7.30;99.90;;;;;;5035569;28;21250;-79
2022/04/27 06:33:15;;;;;;;;;;;7.30;99.90;;;;;;5059386;28;19932;-80
2022/04/27 06:35:41;;;;;;;;;;;7.40;99.90;;;;;;5047025;28;19926;-79
2022/04/27 06:38:08;;;;;;;;;;;7.40;99.90;;;;;;5029909;28;19931;-81
2022/04/27 06:40:35;;;;;;;;;;;7.50;99.90;;;;;;5032092;28;19925;-78
2022/04/27 06:43:01;;;;;;;;;;;7.50;99.90;;;;;;5044206;28;19925;-79
2022/04/27 06:45:28;;;;;;;;;;;7.60;99.90;;;;;;5034694;28;19944;-79
2022/04/27 06:47:55;;;;;;;;;;;7.60;99.90;;;;;;5034432;28;19982;-79
2022/04/27 06:50:21;;;;;;;;;;;7.60;99.90;;;;;;5029794;28;19931;-79
2022/04/27 06:52:48;;;;;;;;;;;7.70;99.90;;;;;;5033247;28;19928;-79
2022/04/27 06:55:14;;;;;;;;;;;7.80;99.90;;;;;;5032265;28;19928;-79
2022/04/27 06:57:41;;;;;;;;;;;7.80;99.90;;;;;;5054498;28;19931;-79
2022/04/27 07:00:08;;;;;;;;;;;7.80;99.90;;;;;;5036415;28;20258;-79
2022/04/27 07:02:35;;;;;;;;;;;7.90;99.90;;;;;;5036475;28;20375;-78
2022/04/27 07:05:01;;;;;;;;;;;7.90;99.90;;;;;;5040717;28;19933;-79
2022/04/27 07:07:28;;;;;;;;;;;7.90;99.90;;;;;;5039878;28;19925;-79
2022/04/27 07:09:54;;;;;;;;;;;8.00;99.90;;;;;;5034977;28;20376;-79
2022/04/27 07:12:21;;;;;;;;;;;8.00;99.90;;;;;;5034740;28;19925;-79
2022/04/27 07:14:48;;;;;;;;;;;8.10;99.90;;;;;;5027415;28;19925;-78
2022/04/27 07:17:14;;;;;;;;;;;8.20;99.90;;;;;;5052125;28;20403;-79
2022/04/27 07:19:41;;;;;;;;;;;8.20;99.90;;;;;;5032005;28;19925;-79
2022/04/27 07:22:07;;;;;;;;;;;8.20;99.90;;;;;;5030522;28;19928;-79
2022/04/27 07:24:34;;;;;;;;;;;8.30;99.90;;;;;;5033786;28;20124;-79
2022/04/27 07:27:00;;;;;;;;;;;8.30;99.90;;;;;;5031641;28;20283;-79
2022/04/27 07:29:27;;;;;;;;;;;8.40;99.90;;;;;;5033478;28;20029;-79
2022/04/27 07:31:54;;;;;;;;;;;8.50;99.90;;;;;;5038798;28;19933;-77
2022/04/27 07:34:20;;;;;;;;;;;8.50;99.90;;;;;;5033035;28;20016;-79
2022/04/27 07:36:47;;;;;;;;;;;8.70;99.90;;;;;;5030940;28;19932;-79
2022/04/27 07:39:13;;;;;;;;;;;8.80;99.90;;;;;;5037610;28;19928;-82
2022/04/27 07:41:40;;;;;;;;;;;8.80;99.90;;;;;;5046716;28;20011;-79
2022/04/27 07:44:07;;;;;;;;;;;8.90;99.90;;;;;;5032486;28;19931;-79
2022/04/27 07:46:33;;;;;;;;;;;9.00;99.90;;;;;;5029175;28;20009;-79
2022/04/27 07:49:00;;;;;;;;;;;9.10;99.90;;;;;;5036312;28;20455;-79
2022/04/27 07:51:27;;;;;;;;;;;9.10;99.90;;;;;;5031975;28;19924;-79
2022/04/27 07:53:53;;;;;;;;;;;9.20;99.90;;;;;;5031111;28;19929;-79
2022/04/27 07:56:20;;;;;;;;;;;9.10;99.90;;;;;;5032399;28;19924;-79
2022/04/27 07:58:46;;;;;;;;;;;9.20;99.90;;;;;;5031317;28;19924;-79
2022/04/27 08:01:13;;;;;;;;;;;9.30;99.90;;;;;;5036321;28;20322;-79
2022/04/27 08:03:39;;;;;;;;;;;9.40;99.90;;;;;;5044231;28;20261;-78
2022/04/27 08:06:06;;;;;;;;;;;9.40;99.90;;;;;;5033650;28;20406;-79
2022/04/27 08:08:33;;;;;;;;;;;9.50;99.90;;;;;;5031721;28;19939;-79
2022/04/27 08:10:59;;;;;;;;;;;9.50;99.90;;;;;;5057810;28;19925;-79
2022/04/27 08:13:26;;;;;;;;;;;9.60;99.90;;;;;;5034222;28;19925;-82
2022/04/27 08:15:52;;;;;;;;;;;9.70;99.90;;;;;;5029010;28;19932;-80
2022/04/27 08:18:20;;;;;;;;;;;9.70;99.90;;;;;;5022157;28;19975;-80
2022/04/27 08:23:32;;;;;;;;;;;9.80;99.90;;;;;;5027729;28;19924;-80
2022/04/27 08:25:59;;;;;;;;;;;9.90;99.90;;;;;;5025559;28;19932;-80
2022/04/27 08:28:26;;;;;;;;;;;9.90;99.90;;;;;;5023564;28;19968;-80
2022/04/27 08:30:53;;;;;;;;;;;9.90;98.80;;;;;;5017952;28;20765;-80
2022/04/27 08:33:20;;;;;;;;;;;10.00;99.90;;;;;;5023028;28;20286;-79
2022/04/27 08:35:46;;;;;;;;;;;10.10;99.90;;;;;;5042761;28;19989;-80
2022/04/27 08:38:13;;;;;;;;;;;10.10;99.90;;;;;;5019393;28;19929;-80
2022/04/27 08:40:40;;;;;;;;;;;10.10;99.40;;;;;;5045389;28;19929;-80
2022/04/27 08:43:06;;;;;;;;;;;10.10;99.10;;;;;;5017204;28;19925;-80
2022/04/27 08:45:33;;;;;;;;;;;10.20;96.70;;;;;;5016951;28;19925;-80
2022/04/27 08:48:00;;;;;;;;;;;10.10;97.40;;;;;;5024462;28;19928;-80
2022/04/27 08:50:26;;;;;;;;;;;10.30;97.90;;;;;;5026513;28;20019;-79
2022/04/27 08:52:53;;;;;;;;;;;10.20;95.50;;;;;;5022765;28;19932;-80
2022/04/27 08:55:21;;;;;;;;;;;10.20;95.70;;;;;;5029242;28;20009;-83
2022/04/27 08:57:48;;;;;;;;;;;10.30;97.40;;;;;;5028240;28;20702;-80
2022/04/27 09:00:14;;;;;;;;;;;10.40;97.40;;;;;;5019051;28;19929;-80
2022/04/27 09:02:41;;;;;;;;;;;10.40;98.10;;;;;;5028887;28;20789;-80
2022/04/27 09:05:07;;;;;;;;;;;10.50;97.00;;;;;;5027890;28;19932;-80
2022/04/27 09:07:34;;;;;;;;;;;10.50;96.50;;;;;;5026047;28;19952;-83
2022/04/27 09:10:00;;;;;;;;;;;10.50;96.10;;;;;;5037276;28;19928;-80
2022/04/27 09:12:27;;;;;;;;;;;10.60;96.10;;;;;;5014940;28;20387;-80
2022/04/27 09:14:53;;;;;;;;;;;10.60;95.70;;;;;;5028668;28;19933;-80
2022/04/27 09:22:49;;;;;;;;;;;10.70;96.00;;;;;;5028447;28;19929;-81
2022/04/27 09:25:15;;;;;;;;;;;10.70;95.40;;;;;;5029964;28;19955;-80
2022/04/27 09:27:42;;;;;;;;;;;10.70;94.90;;;;;;5025665;28;20439;-80
2022/04/27 09:30:10;;;;;;;;;;;10.70;95.00;;;;;;5028682;28;20359;-80
2022/04/27 09:32:37;;;;;;;;;;;10.80;97.30;;;;;;5027829;28;19933;-80
2022/04/27 09:35:03;;;;;;;;;;;11.00;95.70;;;;;;5032924;28;20541;-77
2022/04/27 09:37:30;;;;;;;;;;;11.00;95.60;;;;;;5035473;28;20398;-79
2022/04/27 09:39:57;;;;;;;;;;;11.00;93.40;;;;;;5036415;28;19931;-79
2022/04/27 09:42:23;;;;;;;;;;;11.10;94.50;;;;;;5035479;28;19931;-84
2022/04/27 09:44:50;;;;;;;;;;;11.20;94.50;;;;;;5026539;28;19948;-81
2022/04/27 09:47:16;;;;;;;;;;;11.20;94.40;;;;;;5050148;28;20390;-80
2022/04/27 09:49:43;;;;;;;;;;;11.20;93.00;;;;;;5031827;28;20018;-80
2022/04/27 09:52:10;;;;;;;;;;;11.20;92.20;;;;;;5027933;28;19929;-79
2022/04/27 09:54:36;;;;;;;;;;;11.30;93.30;;;;;;5050726;28;19929;-80
2022/04/27 09:57:03;;;;;;;;;;;11.30;92.00;;;;;;5036040;28;19974;-81
2022/04/27 09:59:30;;;;;;;;;;;11.30;91.50;;;;;;5044258;28;19929;-83
2022/04/27 10:01:57;;;;;;;;;;;11.30;91.00;;;;;;5022816;28;19925;-80
2022/04/27 10:04:24;;;;;;;;;;;11.30;92.50;;;;;;5029810;28;20069;-88
2022/04/27 10:06:51;;;;;;;;;;;11.50;91.60;;;;;;5024053;28;20403;-82
2022/04/27 10:09:17;;;;;;;;;;;11.50;92.50;;;;;;5026233;28;20283;-82
2022/04/27 10:11:44;;;;;;;;;;;11.60;91.60;;;;;;5043299;28;19932;-82
2022/04/27 10:14:10;;;;;;;;;;;11.60;93.10;;;;;;5027526;28;19967;-81
2022/04/27 10:16:37;;;;;;;;;;;11.70;92.20;;;;;;5039057;28;19929;-81
2022/04/27 10:19:03;;;;;;;;;;;11.80;92.30;;;;;;5032512;28;19925;-81
2022/04/27 10:21:36;;;;;;;;;;;11.90;90.20;;;;;;5034181;28;20524;-81
2022/04/27 10:24:05;;;;;;;;;;;11.90;92.60;;;;;;5046567;28;19928;-83
2022/04/27 10:26:31;;;;;;;;;;;11.90;90.90;;;;;;5030010;28;19928;-82
2022/04/27 10:28:59;;;;;;;;;;;11.90;88.60;;;;;;5037901;28;19925;-81
2022/04/27 10:31:26;;;;;;;;;;;11.90;90.40;;;;;;5021299;28;19932;-86
2022/04/27 10:33:52;;;;;;;;;;;11.90;89.40;;;;;;5035659;28;19935;-83
2022/04/27 10:36:19;;;;;;;;;;;11.90;88.80;;;;;;5043807;28;19939;-81
2022/04/27 10:38:45;;;;;;;;;;;11.90;89.90;;;;;;5036852;28;19998;-82
2022/04/27 10:41:13;;;;;;;;;;;12.10;90.30;;;;;;5050648;28;19924;-82
2022/04/27 10:43:40;;;;;;;;;;;12.10;86.10;;;;;;5027997;28;19948;-83
2022/04/27 10:46:06;;;;;;;;;;;12.10;86.20;;;;;;5032146;28;20386;-82
2022/04/27 10:48:33;;;;;;;;;;;12.20;89.20;;;;;;5046900;28;19933;-83
2022/04/27 10:51:01;;;;;;;;;;;12.30;87.90;;;;;;5043394;28;19929;-82
2022/04/27 10:53:27;;;;;;;;;;;12.30;85.00;;;;;;5056293;28;19998;-90
2022/04/27 10:55:54;;;;;;;;;;;12.30;87.80;;;;;;5041441;28;19935;-82
2022/04/27 10:58:21;;;;;;;;;;;12.30;85.50;;;;;;5031605;28;19929;-83
2022/04/27 11:00:47;;;;;;;;;;;12.20;84.10;;;;;;5032940;28;19932;-82
2022/04/27 11:03:14;;;;;;;;;;;12.20;85.20;;;;;;5029508;28;19925;-83
2022/04/27 11:05:40;;;;;;;;;;;12.20;86.60;;;;;;5045025;28;19924;-84
2022/04/27 11:08:07;;;;;;;;;;;12.30;84.60;;;;;;5051707;28;19925;-82
2022/04/27 11:10:34;;;;;;;;;;;12.20;85.50;;;;;;5035145;28;19948;-84
2022/04/27 11:13:01;;;;;;;;;;;12.20;84.10;;;;;;5025160;28;20004;-82
2022/04/27 11:15:28;;;;;;;;;;;12.30;84.00;;;;;;5023504;28;20008;-88
2022/04/27 11:17:56;;;;;;;;;;;12.30;85.10;;;;;;5030168;28;19924;-83
2022/04/27 11:20:23;;;;;;;;;;;12.30;86.30;;;;;;5034809;28;19928;-83
2022/04/27 11:22:49;;;;;;;;;;;12.40;86.60;;;;;;5031598;28;19929;-83
2022/04/27 11:25:16;;;;;;;;;;;12.60;86.90;;;;;;5037720;28;19940;-82
2022/04/27 11:27:42;;;;;;;;;;;12.70;87.80;;;;;;5033147;28;19924;-84
2022/04/27 11:30:09;;;;;;;;;;;12.80;85.60;;;;;;5025841;28;19925;-83
2022/04/27 11:32:35;;;;;;;;;;;12.80;84.90;;;;;;5031787;28;20397;-86
2022/04/27 11:35:02;;;;;;;;;;;12.90;83.40;;;;;;5033862;28;20322;-83
2022/04/27 11:37:30;;;;;;;;;;;12.70;82.90;;;;;;5029511;28;19925;-87
2022/04/27 11:39:57;;;;;;;;;;;12.70;83.30;;;;;;5040264;28;19925;-86
2022/04/27 11:42:25;;;;;;;;;;;12.80;83.00;;;;;;5029943;28;19925;-84
2022/04/27 11:44:52;;;;;;;;;;;12.80;81.50;;;;;;5037599;28;19928;-82
2022/04/27 11:47:19;;;;;;;;;;;12.80;84.20;;;;;;5044669;28;19983;-82
2022/04/27 11:49:45;;;;;;;;;;;12.70;78.80;;;;;;5036767;28;19933;-81
2022/04/27 11:52:12;;;;;;;;;;;12.70;83.50;;;;;;5051811;28;19932;-87
2022/04/27 11:54:38;;;;;;;;;;;12.70;82.70;;;;;;5032885;28;19925;-81
2022/04/27 11:57:07;;;;;;;;;;;12.70;80.80;;;;;;5037802;28;19968;-81
2022/04/27 11:59:33;;;;;;;;;;;12.80;79.90;;;;;;5027631;28;20352;-81
2022/04/27 12:02:00;;;;;;;;;;;12.80;82.10;;;;;;5033971;28;19970;-82
2022/04/27 12:04:26;;;;;;;;;;;12.90;85.20;;;;;;5030745;28;19936;-83
2022/04/27 12:06:53;;;;;;;;;;;12.90;83.50;;;;;;5025491;28;19928;-86
2022/04/27 12:09:19;;;;;;;;;;;13.00;82.50;;;;;;5036024;28;19936;-82
2022/04/27 12:11:47;;;;;;;;;;;13.00;82.50;;;;;;5055711;28;19933;-82
2022/04/27 12:14:14;;;;;;;;;;;12.90;79.70;;;;;;5024196;28;20012;-83
2022/04/27 12:16:40;;;;;;;;;;;12.80;83.30;;;;;;5047515;28;19929;-81
2022/04/27 12:19:07;;;;;;;;;;;12.90;84.00;;;;;;5030652;28;19925;-82
2022/04/27 12:21:33;;;;;;;;;;;12.90;82.60;;;;;;5045632;28;19924;-82
2022/04/27 12:24:00;;;;;;;;;;;12.90;84.30;;;;;;5042242;28;19931;-83
2022/04/27 12:26:27;;;;;;;;;;;12.90;85.00;;;;;;5044114;28;19933;-81
2022/04/27 12:28:53;;;;;;;;;;;12.90;84.10;;;;;;5033368;28;19929;-80
2022/04/27 12:31:20;;;;;;;;;;;12.90;85.20;;;;;;5029203;28;19924;-81
2022/04/27 12:33:48;;;;;;;;;;;12.80;85.60;;;;;;5033566;28;20326;-80
2022/04/27 12:38:59;;;;;;;;;;;12.90;88.20;;;;;;5028217;28;20322;-82
2022/04/27 12:41:26;;;;;;;;;;;12.90;88.00;;;;;;5037610;28;19935;-81
2022/04/27 12:43:54;;;;;;;;;;;12.80;88.20;;;;;;5050647;28;19925;-82
2022/04/27 12:46:21;;;;;;;;;;;12.90;89.80;;;;;;5049601;28;19925;-79
2022/04/27 12:48:47;;;;;;;;;;;13.10;89.20;;;;;;5033429;28;19925;-81
2022/04/27 12:51:14;;;;;;;;;;;13.10;89.30;;;;;;5048841;28;20368;-81
2022/04/27 12:53:40;;;;;;;;;;;12.80;90.20;;;;;;5045721;28;19925;-82
2022/04/27 12:56:07;;;;;;;;;;;12.70;91.90;;;;;;5034208;28;20371;-81
2022/04/27 12:58:33;;;;;;;;;;;12.70;91.80;;;;;;5034081;28;19925;-88
2022/04/27 13:01:00;;;;;;;;;;;12.70;92.70;;;;;;5057099;28;20008;-80
2022/04/27 13:03:27;;;;;;;;;;;12.80;92.30;;;;;;5054982;28;19928;-81
2022/04/27 13:05:53;;;;;;;;;;;12.60;92.90;;;;;;5053846;28;19932;-81
2022/04/27 13:08:20;;;;;;;;;;;12.30;93.20;;;;;;5053764;28;19925;-81
2022/04/27 13:13:31;;;;;;;;;;;12.20;93.30;;;;;;5039926;28;19954;-80
2022/04/27 13:15:57;;;;;;;;;;;12.20;93.60;;;;;;5057710;28;19935;-81
2022/04/27 13:18:24;;;;;;;;;;;12.20;94.30;;;;;;5046121;28;19925;-82
2022/04/27 13:20:51;;;;;;;;;;;12.20;94.00;;;;;;5029421;28;19990;-81
2022/04/27 13:23:17;;;;;;;;;;;12.20;94.00;;;;;;5044187;28;20006;-82
2022/04/27 13:25:44;;;;;;;;;;;12.10;93.40;;;;;;5041729;28;19925;-82
2022/04/27 13:28:12;;;;;;;;;;;12.10;93.60;;;;;;5038515;28;19925;-81
2022/04/27 13:30:40;;;;;;;;;;;12.10;93.80;;;;;;5028492;28;19925;-88
2022/04/27 13:33:06;;;;;;;;;;;12.00;93.50;;;;;;5041321;28;20015;-81
2022/04/27 13:35:33;;;;;;;;;;;11.80;94.30;;;;;;5031371;28;19925;-82
2022/04/27 13:38:00;;;;;;;;;;;11.90;94.50;;;;;;5032023;28;19937;-81
2022/04/27 13:40:26;;;;;;;;;;;11.90;94.40;;;;;;5038052;28;19936;-81
2022/04/27 13:42:53;;;;;;;;;;;11.70;94.00;;;;;;5041951;28;19931;-81
2022/04/27 13:45:19;;;;;;;;;;;11.80;94.10;;;;;;5036488;28;19932;-82
2022/04/27 13:47:46;;;;;;;;;;;11.80;94.60;;;;;;5038299;28;19929;-81
2022/04/27 13:50:13;;;;;;;;;;;11.80;93.20;;;;;;5040076;28;19931;-82
2022/04/27 13:52:39;;;;;;;;;;;11.90;93.90;;;;;;5050398;28;19925;-87
2022/04/27 13:55:06;;;;;;;;;;;12.10;94.20;;;;;;5034045;28;20431;-84
2022/04/27 13:57:33;;;;;;;;;;;12.20;93.20;;;;;;5053834;28;20375;-81
2022/04/27 13:59:59;;;;;;;;;;;12.30;92.90;;;;;;5037849;28;19929;-81
2022/04/27 14:02:26;;;;;;;;;;;12.30;93.10;;;;;;5050251;28;20350;-81
2022/04/27 14:04:53;;;;;;;;;;;12.30;93.40;;;;;;5047066;28;19925;-81
2022/04/27 14:07:20;;;;;;;;;;;12.10;93.80;;;;;;5025559;28;19979;-85
2022/04/27 14:09:46;;;;;;;;;;;12.20;93.20;;;;;;5033852;28;19951;-85
2022/04/27 14:14:57;;;;;;;;;;;12.40;93.60;;;;;;5050716;28;19936;-85
2022/04/27 14:20:08;;;;;;;;;;;12.30;94.20;;;;;;5037553;28;20004;-85
2022/04/27 14:22:34;;;;;;;;;;;12.40;93.60;;;;;;5037122;28;19925;-84
2022/04/27 14:25:03;;;;;;;;;;;12.40;93.60;;;;;;5033117;28;20007;-85
2022/04/27 14:27:29;;;;;;;;;;;12.30;93.30;;;;;;5031706;28;19968;-85
2022/04/27 14:29:56;;;;;;;;;;;12.20;93.60;;;;;;5032418;28;19958;-85
2022/04/27 14:32:22;;;;;;;;;;;12.20;94.30;;;;;;5014643;28;19964;-85
2022/04/27 14:34:49;;;;;;;;;;;12.20;93.70;;;;;;5034548;28;20394;-85
2022/04/27 14:37:15;;;;;;;;;;;12.00;93.50;;;;;;5038860;28;19929;-84
2022/04/27 14:39:42;;;;;;;;;;;12.00;93.20;;;;;;5050591;28;19936;-86
2022/04/27 14:42:09;;;;;;;;;;;11.90;93.70;;;;;;5050943;28;20295;-85
2022/04/27 14:44:35;;;;;;;;;;;11.80;93.60;;;;;;5043062;28;20379;-84
2022/04/27 14:47:02;;;;;;;;;;;11.70;94.10;;;;;;5020301;28;19925;-84
2022/04/27 14:49:28;;;;;;;;;;;11.90;93.60;;;;;;5043120;28;19979;-84
2022/04/27 14:51:55;;;;;;;;;;;12.00;94.00;;;;;;5038278;28;20296;-84